NCAR-RAP Real-Time Weather Data

Output produced by METARs form (17 December 2018  15:45 UTC)
found at http://weather.rap.ucar.edu/surface/
 
RODN 171456Z AUTO 35011KT 10SM FEW047 16/07 A3017 RMK AO2 SLP224 T01630070 402120161 50000 PWINO $
RODN 171356Z AUTO 33007KT 10SM FEW046 16/07 A3018 RMK AO2 SLP227 T01640068 PWINO $
RODN 171256Z AUTO 32010KT 10SM CLR 17/07 A3018 RMK AO2 SLP227 T01660067 PWINO $
RODN 171156Z AUTO 33008KT 10SM FEW043 17/08 A3017 RMK AO2 SLP224 T01710080 10199 20170 52014 PWINO $
RODN 171056Z AUTO 34007G16KT 10SM FEW042 17/08 A3016 RMK AO2 SLP220 T01730076 PWINO $
RODN 170956Z AUTO 33009KT 9SM FEW038 18/10 A3014 RMK AO2 SLP213 T01760095 PWINO $
RODN 170856Z AUTO 33012G18KT 8SM FEW038 18/10 A3013 RMK AO2 SLP210 T01790098 52012 PWINO $
RODN 170756Z AUTO 33012G18KT 8SM FEW041 18/09 A3011 RMK AO2 SLP203 T01810094 PWINO $
RODN 170656Z AUTO 32013G19KT 10SM CLR 20/09 A3010 RMK AO2 SLP199 T01980085 PWINO $
RODN 170556Z AUTO 32012G19KT 10SM FEW040 FEW050 20/10 A3009 RMK AO2 SLP196 T01970096 10212 20192 55009 PWINO $
RODN 170456Z AUTO 33014G20KT 10SM FEW041 SCT150 SCT200 20/10 A3009 RMK AO2 SLP196 T02040102 PWINO $
RODN 170356Z AUTO 33012G22KT 10SM FEW040 21/11 A3010 RMK AO2 SLP199 T02080106 PWINO $
RODN 170256Z AUTO 32012KT 10SM CLR 20/11 A3012 RMK AO2 SLP206 T02040108 50007 PWINO $
RODN 170156Z AUTO 32011G16KT 10SM FEW039 FEW160 FEW210 20/11 A3013 RMK AO2 SLP210 T02020114 PWINO $
RODN 170056Z AUTO 31012G18KT 10SM SCT038 20/12 A3012 RMK AO2 SLP206 T01980118 PWINO $
RODN 162356Z AUTO 32008KT 10SM SCT041 BKN048 19/12 A3010 RMK AO2 SLP199 T01920120 10193 20184 53017 PWINO $
RODN 162256Z AUTO 31008KT 10SM SCT038 SCT045 BKN100 19/11 A3007 RMK AO2 SLP189 T01870113 PWINO $
RODN 162156Z AUTO 32011KT 10SM FEW033 BKN043 18/12 A3005 RMK AO2 SLP182 T01840122 PWINO $
RODN 162056Z AUTO 30011G19KT 10SM FEW034 SCT042 19/13 A3005 RMK AO2 SLP182 T01870129 53008 PWINO $
RODN 161956Z AUTO 31012G17KT 10SM FEW026 SCT035 BKN046 19/14 A3002 RMK AO2 SLP172 T01910141 PWINO $
RODN 161856Z AUTO 29011KT 10SM FEW026 BKN038 19/14 A3001 RMK AO2 SLP168 T01920138 PWINO $
RODN 161756Z 31011KT 10SM FEW026 FEW038 SCT048 19/15 A3002 RMK AO2A SLP172 60052 T01910148 10226 20191 58004 $
RODN 161656Z AUTO 31011KT 10SM FEW023 FEW033 19/16 A3003 RMK AO2 SLP175 T01930157 PWINO $
RODN 161556Z AUTO 30009KT 10SM BKN046 20/16 A3003 RMK AO2 SLP175 T01990161 PWINO $
RODN 161456Z 31007KT 10SM FEW014 19/18 A3004 RMK AO2A RAB24E41DZB41E56 SLP179 P0002 60052 T01930176 402570106 58000 $
RODN 161425Z COR 00000KT 5SM -RA FEW002 SCT016 OVC036 20/17 A3004 RMK AO2A SLP179 $ COR 1429
RODN 161424Z 30003KT 4SM -RA FEW018 OVC036 20/17 A3004 RMK AO2A RAB24 SLP179 PWINO $
RODN 161356Z 30007KT 10SM FEW022 20/17 A3004 RMK AO2A P0000 SLP179 T01980172 $
RODN 161345Z 30005KT 10SM FEW024 20/17 A3004 RMK AO2A DZB20E43 SLP179 $
RODN 161320Z 31006KT 7SM -DZ BKN020 BKN029 20/18 A3005 RMK AO2A DZB20 CIG 020V029 SLP182 $
RODN 161316Z AUTO 30009KT 10SM SCT018 BKN029 20/17 A3005 RMK AO2 CIG 016V029 SLP182 PWINO $
RODN 161306Z AUTO 30008KT 10SM BKN016 BKN024 20/17 A3005 RMK AO2 SLP182 PWINO $
RODN 161256Z 30011KT 10SM BKN014 OVC022 19/17 A3005 RMK AO2A SLP182 P0050 T01930174 $
RODN 161254Z COR 30010KT 10SM BKN014 OVC022 19/17 A3005 RMK AO2A RAB10E54 SLP182 $ COR 1303
RODN 161251Z 30009KT 6SM -RA BKN012 OVC020 19/18 A3005 RMK AO2A CIG 009 RWY05 SLP182 $
RODN 161243Z 30011KT 4SM RA BKN012 BKN021 20/18 A3006 RMK AO2A CIG 012V017 CIG 009 RWY05 SLP186 PWINO $
RODN 161238Z 30010KT 5SM RA BKN012 BKN021 20/18 A3006 RMK AO2A CIG 012V034 CIG 009 RWY05 SLP186 $
RODN 161232Z 31011KT 6SM -RA SCT011 BKN017 BKN034 20/18 A3005 RMK AO2A CIG 017V043 CIG 009 RWY05 SLP182 $
RODN 161223Z 30012KT 6SM -RA SCT008 SCT034 SCT043 21/19 A3005 RMK AO2A SLP182 $
RODN 161215Z 30011KT 4SM RA FEW007 SCT034 BKN045 22/19 A3005 RMK AO2A WSHFT 08 SLP182 PWINO $
RODN 161212Z 30013KT 2 1/2SM RA FEW010 SCT034 BKN045 23/18 A3004 RMK AO2A RAB10 SLP179 PWINO $
RODN 161208Z 26013KT 10SM SCT037 BKN048 23/17 A3005 RMK AO2A WSHFT 02 SLP182 PWINO $
RODN 161156Z AUTO 21012KT 10SM SCT050 23/17 A3004 RMK AO2 SLP179 T02250170 10250 20216 56001 PWINO $
RODN 161056Z AUTO 21011KT 10SM FEW029 BKN060 22/17 A3004 RMK AO2 SLP180 T02220167 PWINO $
RODN 160956Z AUTO 21009KT 10SM FEW029 FEW060 22/17 A3004 RMK AO2 SLP180 T02170166 PWINO $
RODN 160856Z AUTO 21008KT 10SM FEW030 22/16 A3004 RMK AO2 SLP180 T02160161 55005 PWINO $
RODN 160756Z AUTO 21010KT 10SM CLR 24/16 A3003 RMK AO2 SLP176 T02370160 PWINO $
RODN 160656Z AUTO 21010KT 10SM CLR 25/16 A3004 RMK AO2 SLP179 T02460160 PWINO $
RODN 160556Z AUTO 22010KT 10SM CLR 25/15 A3006 RMK AO2 SLP186 T02500153 10257 20177 57024 PWINO $
RODN 160456Z AUTO 22011KT 10SM CLR 25/15 A3008 RMK AO2 SLP193 T02520149 PWINO $
RODN 160356Z AUTO 21008KT 10SM CLR 26/14 A3010 RMK AO2 SLP200 T02560141 PWINO $
RODN 160256Z AUTO 14007KT 10SM CLR 24/14 A3013 RMK AO2 SLP210 T02430138 58011 PWINO $
RODN 160156Z AUTO 21005KT 10SM CLR 23/15 A3016 RMK AO2 SLP220 T02290147 PWINO $
RODN 160056Z AUTO 16003KT 10SM CLR 21/16 A3018 RMK AO2 SLP227 T02120164 PWINO $
RODN 152356Z AUTO 12003KT 10SM CLR 18/17 A3016 RMK AO2 SLP221 T01760169 10176 20106 58003 PWINO $
RODN 151356Z AUTO 06005KT 10SM CLR 13/10 A3023 RMK AO2 SLP244 T01250097 PWINO $
RODN 151256Z AUTO 06006KT 10SM CLR 13/10 A3025 RMK AO2 SLP251 T01250095 PWINO $
RODN 151156Z AUTO 05006KT 10SM CLR 13/10 A3025 RMK AO2 SLP251 T01300096 10207 20130 50001 PWINO $
RODN 151056Z AUTO 05005KT 10SM CLR 14/10 A3025 RMK AO2 SLP251 T01370099 PWINO $
RODN 150956Z AUTO 02006KT 10SM SCT210 17/11 A3026 RMK AO2 SLP255 T01680106 PWINO $
RODN 150856Z AUTO 02007KT 10SM CLR 17/09 A3025 RMK AO2 SLP251 T01710093 53006 PWINO $
RODN 150756Z AUTO 05008KT 10SM FEW040 19/10 A3023 RMK AO2 SLP244 T01870103 PWINO $
RODN 150656Z AUTO 06013KT 10SM CLR 20/10 A3022 RMK AO2 SLP241 T02020103 PWINO $
RODN 150556Z AUTO 07015G19KT 10SM FEW041 21/10 A3023 RMK AO2 SLP244 T02050097 10216 20188 56028 PWINO $
RODN 150456Z AUTO 09012KT 10SM SCT042 21/11 A3024 RMK AO2 SLP247 T02090107 PWINO $
RODN 150356Z AUTO 04012KT 10SM CLR 21/10 A3027 RMK AO2 SLP257 T02140099 PWINO $